Time;durP1;ratioP1;P1;durP2;ratioP2;P2;SDS_P1;SDS_P2;PMS_P1;PMS_P2;Temp;Humidity;BMP_temperature;BMP_pressure;BME280_temperature;BME280_humidity;BME280_pressure;Samples;Min_cycle;Max_cycle;Signal;HPM_P1;HPM_P2
2023/11/05 00:00:24;;;;;;;1.13;0.53;;;;;;;;;;5092137;28;20036;-59
2023/11/05 00:02:51;;;;;;;0.57;0.50;;;;;;;;;;5092277;28;20031;-59
2023/11/05 00:05:19;;;;;;;1.77;0.73;;;;;;;;;;5091806;28;20028;-59
2023/11/05 00:07:47;;;;;;;0.97;0.63;;;;;;;;;;5090728;28;20115;-59
2023/11/05 00:10:14;;;;;;;0.97;0.80;;;;;;;;;;5071607;28;20020;-58
2023/11/05 00:12:41;;;;;;;1.00;0.63;;;;;;;;;;5066667;28;20089;-59
2023/11/05 00:15:09;;;;;;;0.47;0.40;;;;;;;;;;5073262;28;20031;-58
2023/11/05 00:17:38;;;;;;;0.80;0.57;;;;;;;;;;5084208;28;20099;-59
2023/11/05 00:20:07;;;;;;;1.40;0.77;;;;;;;;;;5086555;28;20071;-58
2023/11/05 00:22:34;;;;;;;0.67;0.50;;;;;;;;;;5091817;28;20399;-58
2023/11/05 00:25:01;;;;;;;0.47;0.33;;;;;;;;;;5092190;28;20466;-58
2023/11/05 00:27:28;;;;;;;1.00;0.67;;;;;;;;;;5091863;28;20024;-60
2023/11/05 00:29:57;;;;;;;1.80;0.97;;;;;;;;;;5071993;28;20021;-58
2023/11/05 00:32:23;;;;;;;0.73;0.43;;;;;;;;;;5071607;28;20061;-58
2023/11/05 00:34:50;;;;;;;0.87;0.60;;;;;;;;;;5046431;28;20391;-59
2023/11/05 00:37:17;;;;;;;1.40;0.83;;;;;;;;;;5046885;28;20525;-58
2023/11/05 00:39:44;;;;;;;1.23;0.70;;;;;;;;;;5064215;28;20495;-59
2023/11/05 00:42:10;;;;;;;2.67;0.87;;;;;;;;;;5066407;28;20025;-58
2023/11/05 00:44:37;;;;;;;1.43;0.70;;;;;;;;;;5088034;28;20386;-58
2023/11/05 00:47:04;;;;;;;1.20;1.03;;;;;;;;;;5091761;28;20478;-58
2023/11/05 00:49:31;;;;;;;3.50;0.80;;;;;;;;;;5082656;28;20020;-58
2023/11/05 00:51:57;;;;;;;2.27;0.80;;;;;;;;;;5091919;28;20020;-58
2023/11/05 00:54:24;;;;;;;1.53;0.50;;;;;;;;;;5091805;28;20031;-59
2023/11/05 00:56:51;;;;;;;0.40;0.40;;;;;;;;;;5076441;28;20055;-58
2023/11/05 00:59:18;;;;;;;1.20;0.70;;;;;;;;;;5066412;28;20035;-59
2023/11/05 01:01:45;;;;;;;1.13;0.50;;;;;;;;;;5066498;28;20036;-58
2023/11/05 01:04:12;;;;;;;1.50;1.03;;;;;;;;;;5066199;28;20542;-58
2023/11/05 01:06:39;;;;;;;0.83;0.60;;;;;;;;;;5076758;28;20063;-58
2023/11/05 01:09:05;;;;;;;0.87;0.60;;;;;;;;;;5090806;28;20128;-58
2023/11/05 01:11:32;;;;;;;0.43;0.43;;;;;;;;;;5089750;28;20027;-58
2023/11/05 01:14:00;;;;;;;0.60;0.53;;;;;;;;;;5089851;28;20020;-58
2023/11/05 01:16:26;;;;;;;0.63;0.50;;;;;;;;;;5089396;28;20459;-58
2023/11/05 01:18:54;;;;;;;2.57;0.70;;;;;;;;;;5078160;28;20032;-59
2023/11/05 01:21:20;;;;;;;1.33;0.83;;;;;;;;;;5064534;28;20040;-60
2023/11/05 01:23:47;;;;;;;1.30;0.83;;;;;;;;;;5047186;28;20438;-59
2023/11/05 01:26:14;;;;;;;3.60;0.97;;;;;;;;;;5066315;28;20025;-58
2023/11/05 01:28:41;;;;;;;1.10;0.60;;;;;;;;;;5075989;28;20012;-58
2023/11/05 01:31:07;;;;;;;0.57;0.50;;;;;;;;;;5095121;28;20020;-59
2023/11/05 01:33:34;;;;;;;1.10;0.80;;;;;;;;;;5094242;28;20155;-58
2023/11/05 01:36:01;;;;;;;1.23;0.67;;;;;;;;;;5095219;28;20028;-58
2023/11/05 01:38:27;;;;;;;0.80;0.50;;;;;;;;;;5092743;28;20028;-59
2023/11/05 01:40:54;;;;;;;0.80;0.60;;;;;;;;;;5092424;28;20533;-58
2023/11/05 01:43:21;;;;;;;1.60;0.60;;;;;;;;;;5089958;28;20026;-58
2023/11/05 01:45:48;;;;;;;1.80;0.73;;;;;;;;;;5089680;28;20051;-58
2023/11/05 01:48:14;;;;;;;0.63;0.63;;;;;;;;;;5074453;28;20034;-58
2023/11/05 01:50:42;;;;;;;0.73;0.57;;;;;;;;;;5071280;28;20055;-58
2023/11/05 01:53:09;;;;;;;0.80;0.60;;;;;;;;;;5082718;28;20032;-58
2023/11/05 01:55:37;;;;;;;0.90;0.70;;;;;;;;;;5077614;28;20119;-58
2023/11/05 01:58:04;;;;;;;0.57;0.53;;;;;;;;;;5074296;28;20029;-58
2023/11/05 02:00:32;;;;;;;1.87;0.70;;;;;;;;;;5074074;28;20044;-58
2023/11/05 02:02:58;;;;;;;0.50;0.40;;;;;;;;;;5072265;28;20025;-58
2023/11/05 02:05:25;;;;;;;0.63;0.53;;;;;;;;;;5069492;28;20033;-58
2023/11/05 02:07:52;;;;;;;3.70;0.83;;;;;;;;;;5069204;28;20032;-58
2023/11/05 02:10:19;;;;;;;0.53;0.53;;;;;;;;;;5068679;28;20074;-58
2023/11/05 02:12:58;;;;;;;1.63;0.50;;;;;;;;;;5069851;28;20024;-58
2023/11/05 02:15:26;;;;;;;1.20;0.60;;;;;;;;;;5073903;28;20361;-58
2023/11/05 02:17:53;;;;;;;1.60;0.63;;;;;;;;;;5074275;28;20376;-58
2023/11/05 02:20:20;;;;;;;1.57;0.90;;;;;;;;;;5073969;28;20044;-58
2023/11/05 02:22:48;;;;;;;0.80;0.70;;;;;;;;;;5073859;28;20036;-58
2023/11/05 02:25:19;;;;;;;2.50;0.87;;;;;;;;;;5072097;28;20020;-58
2023/11/05 02:27:49;;;;;;;1.03;0.80;;;;;;;;;;5074665;28;20118;-58
2023/11/05 02:30:18;;;;;;;0.80;0.70;;;;;;;;;;5088682;28;20103;-59
2023/11/05 02:32:45;;;;;;;3.87;0.50;;;;;;;;;;5088469;28;20040;-58
2023/11/05 02:35:12;;;;;;;1.47;0.80;;;;;;;;;;5090037;28;20032;-58
2023/11/05 02:37:40;;;;;;;2.23;0.60;;;;;;;;;;5094096;28;20025;-58
2023/11/05 02:40:11;;;;;;;2.97;0.80;;;;;;;;;;5081848;28;20075;-58
2023/11/05 02:42:38;;;;;;;1.43;0.80;;;;;;;;;;5073428;28;20029;-58
2023/11/05 02:45:05;;;;;;;1.17;0.80;;;;;;;;;;5073407;28;20021;-58
2023/11/05 02:47:33;;;;;;;0.80;0.63;;;;;;;;;;5071843;28;20082;-58
2023/11/05 02:49:59;;;;;;;1.00;0.80;;;;;;;;;;5076178;28;20024;-58
2023/11/05 02:52:26;;;;;;;3.90;0.80;;;;;;;;;;5088367;28;20473;-58
2023/11/05 02:54:53;;;;;;;1.67;1.00;;;;;;;;;;5088281;28;20028;-58
2023/11/05 02:57:22;;;;;;;9.37;0.80;;;;;;;;;;5088845;28;20024;-58
2023/11/05 02:59:49;;;;;;;1.50;1.20;;;;;;;;;;5092794;28;20047;-58
2023/11/05 03:02:16;;;;;;;0.87;0.80;;;;;;;;;;5093656;28;20602;-57
2023/11/05 03:04:43;;;;;;;0.77;0.57;;;;;;;;;;5093216;28;20031;-58
2023/11/05 03:07:09;;;;;;;1.80;0.90;;;;;;;;;;5093396;28;20020;-58
2023/11/05 03:09:36;;;;;;;1.03;0.70;;;;;;;;;;5092476;28;20081;-58
2023/11/05 03:12:03;;;;;;;1.70;0.90;;;;;;;;;;5078718;28;20032;-58
2023/11/05 03:14:30;;;;;;;0.97;0.60;;;;;;;;;;5067358;28;20042;-58
2023/11/05 03:16:56;;;;;;;2.10;1.07;;;;;;;;;;5067851;28;20020;-58
2023/11/05 03:19:23;;;;;;;1.23;0.80;;;;;;;;;;5067800;28;20048;-57
2023/11/05 03:21:50;;;;;;;0.63;0.53;;;;;;;;;;5072663;28;20040;-58
2023/11/05 03:24:17;;;;;;;3.67;1.07;;;;;;;;;;5072675;28;20029;-59
2023/11/05 03:26:43;;;;;;;5.37;1.00;;;;;;;;;;5072531;28;20462;-58
2023/11/05 03:29:10;;;;;;;1.10;0.67;;;;;;;;;;5072599;28;20029;-58
2023/11/05 03:31:37;;;;;;;1.57;1.00;;;;;;;;;;5072046;28;20020;-57
2023/11/05 03:34:04;;;;;;;1.90;1.10;;;;;;;;;;5067440;28;20048;-58
2023/11/05 03:36:31;;;;;;;2.37;1.27;;;;;;;;;;5075656;28;20029;-58
2023/11/05 03:38:58;;;;;;;14.40;1.33;;;;;;;;;;5087154;28;20032;-58
2023/11/05 03:41:25;;;;;;;1.07;0.90;;;;;;;;;;5087553;28;20097;-58
2023/11/05 03:43:51;;;;;;;0.70;0.63;;;;;;;;;;5092098;28;20033;-58
2023/11/05 03:46:18;;;;;;;3.33;1.60;;;;;;;;;;5084931;28;20036;-58
2023/11/05 03:48:45;;;;;;;0.93;0.73;;;;;;;;;;5072292;28;20021;-58
2023/11/05 03:51:17;;;;;;;1.83;1.20;;;;;;;;;;5072412;28;20055;-58
2023/11/05 03:53:45;;;;;;;1.90;1.60;;;;;;;;;;5052216;28;20036;-57
2023/11/05 03:56:12;;;;;;;2.73;1.60;;;;;;;;;;5052160;28;20043;-57
2023/11/05 03:58:39;;;;;;;1.40;1.07;;;;;;;;;;5066989;28;20031;-58
2023/11/05 04:01:07;;;;;;;0.83;0.50;;;;;;;;;;5066982;28;20029;-58
2023/11/05 04:03:34;;;;;;;3.23;1.33;;;;;;;;;;5066851;28;20036;-58
2023/11/05 04:06:01;;;;;;;2.10;1.13;;;;;;;;;;5070560;28;20024;-58
2023/11/05 04:08:28;;;;;;;4.03;1.33;;;;;;;;;;5071898;28;20379;-58
2023/11/05 04:10:55;;;;;;;2.27;1.10;;;;;;;;;;5072219;28;20021;-58
2023/11/05 04:13:23;;;;;;;2.20;1.27;;;;;;;;;;5071689;28;20021;-58
2023/11/05 04:15:49;;;;;;;2.63;1.20;;;;;;;;;;5072149;28;20024;-57
2023/11/05 04:18:16;;;;;;;7.53;1.10;;;;;;;;;;5067991;28;20082;-58
2023/11/05 04:20:43;;;;;;;3.17;1.47;;;;;;;;;;5066886;28;20037;-58
2023/11/05 04:23:10;;;;;;;1.40;1.00;;;;;;;;;;5066626;28;20081;-58
2023/11/05 04:25:37;;;;;;;2.93;1.37;;;;;;;;;;5066935;28;20032;-58
2023/11/05 04:28:05;;;;;;;2.87;1.30;;;;;;;;;;5069833;28;20063;-58
2023/11/05 04:30:31;;;;;;;1.77;1.33;;;;;;;;;;5071614;28;20160;-58
2023/11/05 04:32:58;;;;;;;1.77;1.00;;;;;;;;;;5088538;28;20052;-57
2023/11/05 04:35:25;;;;;;;1.77;1.03;;;;;;;;;;5092202;28;20075;-58
2023/11/05 04:37:52;;;;;;;2.30;0.90;;;;;;;;;;5092025;28;20016;-58
2023/11/05 04:40:19;;;;;;;3.80;1.10;;;;;;;;;;5075789;28;20501;-58
2023/11/05 04:42:46;;;;;;;6.73;1.70;;;;;;;;;;5067648;28;20107;-58
2023/11/05 04:45:14;;;;;;;1.90;1.33;;;;;;;;;;5066453;28;20038;-58
2023/11/05 04:47:41;;;;;;;2.20;1.27;;;;;;;;;;5066594;28;20039;-58
2023/11/05 04:50:08;;;;;;;2.17;1.23;;;;;;;;;;5070139;28;20462;-58
2023/11/05 04:52:34;;;;;;;1.87;1.13;;;;;;;;;;5071678;28;20025;-58
2023/11/05 04:55:01;;;;;;;1.83;1.23;;;;;;;;;;5071777;28;20027;-57
2023/11/05 04:57:28;;;;;;;1.83;1.27;;;;;;;;;;5086054;28;20038;-58
2023/11/05 04:59:54;;;;;;;1.97;1.27;;;;;;;;;;5080877;28;20036;-57
2023/11/05 05:02:21;;;;;;;0.77;0.67;;;;;;;;;;5088163;28;20024;-57
2023/11/05 05:04:48;;;;;;;3.90;1.53;;;;;;;;;;5090392;28;20028;-58
2023/11/05 05:07:15;;;;;;;1.13;0.77;;;;;;;;;;5090188;28;20224;-58
2023/11/05 05:09:42;;;;;;;0.87;0.67;;;;;;;;;;5090642;28;20081;-58
2023/11/05 05:12:09;;;;;;;0.77;0.60;;;;;;;;;;5092056;28;20474;-58
2023/11/05 05:14:36;;;;;;;0.97;0.67;;;;;;;;;;5094949;28;20388;-58
2023/11/05 05:17:04;;;;;;;8.20;1.20;;;;;;;;;;5095115;28;20020;-57
2023/11/05 05:19:32;;;;;;;1.60;0.77;;;;;;;;;;5086337;28;20028;-57
2023/11/05 05:21:59;;;;;;;2.00;1.00;;;;;;;;;;5095153;28;20118;-58
2023/11/05 05:24:25;;;;;;;2.43;1.10;;;;;;;;;;5093471;28;20035;-58
2023/11/05 05:26:52;;;;;;;1.10;0.80;;;;;;;;;;5089864;28;20032;-57
2023/11/05 05:29:19;;;;;;;1.77;1.07;;;;;;;;;;5089964;28;20090;-58
2023/11/05 05:31:45;;;;;;;1.20;0.87;;;;;;;;;;5089904;28;20413;-58
2023/11/05 05:34:12;;;;;;;1.97;1.30;;;;;;;;;;5075599;28;20024;-57
2023/11/05 05:36:42;;;;;;;1.13;0.93;;;;;;;;;;5074893;28;20025;-57
2023/11/05 05:39:09;;;;;;;1.47;1.10;;;;;;;;;;5074578;28;20024;-57
2023/11/05 05:41:36;;;;;;;2.30;1.33;;;;;;;;;;5074760;28;20048;-58
2023/11/05 05:44:03;;;;;;;2.73;1.03;;;;;;;;;;5074319;28;20028;-57
2023/11/05 05:46:30;;;;;;;5.17;1.10;;;;;;;;;;5073522;28;20028;-58
2023/11/05 05:48:57;;;;;;;2.53;1.13;;;;;;;;;;5068907;28;20379;-57
2023/11/05 05:51:24;;;;;;;2.20;1.27;;;;;;;;;;5068016;28;20434;-57
2023/11/05 05:53:51;;;;;;;2.57;1.30;;;;;;;;;;5069457;28;20025;-57
2023/11/05 05:56:18;;;;;;;1.83;1.00;;;;;;;;;;5080895;28;20081;-58
2023/11/05 05:58:44;;;;;;;0.77;0.77;;;;;;;;;;5094434;28;20039;-58
2023/11/05 06:01:11;;;;;;;3.53;1.23;;;;;;;;;;5094635;28;20039;-57
2023/11/05 06:03:38;;;;;;;1.13;0.80;;;;;;;;;;5094675;28;20024;-58
2023/11/05 06:06:05;;;;;;;1.33;1.03;;;;;;;;;;5094077;28;20103;-57
2023/11/05 06:08:32;;;;;;;2.03;1.20;;;;;;;;;;5093712;28;20031;-57
2023/11/05 06:10:59;;;;;;;2.83;1.20;;;;;;;;;;5089271;28;20031;-57
2023/11/05 06:13:25;;;;;;;13.13;1.33;;;;;;;;;;5088987;28;20049;-57
2023/11/05 06:15:52;;;;;;;1.87;1.40;;;;;;;;;;5089167;28;20051;-58
2023/11/05 06:18:19;;;;;;;0.93;0.77;;;;;;;;;;5088658;28;20487;-58
2023/11/05 06:20:46;;;;;;;4.10;0.70;;;;;;;;;;5093364;28;20130;-57
2023/11/05 06:23:13;;;;;;;3.00;1.23;;;;;;;;;;5078276;28;20429;-57
2023/11/05 06:25:39;;;;;;;1.77;1.10;;;;;;;;;;5073633;28;20113;-57
2023/11/05 06:28:06;;;;;;;1.17;0.90;;;;;;;;;;5073660;28;20025;-57
2023/11/05 06:30:33;;;;;;;0.83;0.57;;;;;;;;;;5073671;28;20024;-58
2023/11/05 06:32:59;;;;;;;6.50;0.80;;;;;;;;;;5068665;28;20385;-57
2023/11/05 06:35:26;;;;;;;0.87;0.67;;;;;;;;;;5068944;28;20449;-58
2023/11/05 06:37:53;;;;;;;13.03;1.10;;;;;;;;;;5068687;28;20074;-57
2023/11/05 06:40:19;;;;;;;1.00;0.80;;;;;;;;;;5068330;28;20041;-57
2023/11/05 06:42:46;;;;;;;1.63;0.80;;;;;;;;;;5073140;28;20040;-57
2023/11/05 06:45:13;;;;;;;15.87;1.20;;;;;;;;;;5074019;28;20110;-58
2023/11/05 06:47:42;;;;;;;0.93;0.83;;;;;;;;;;5071185;28;20762;-57
2023/11/05 06:50:09;;;;;;;0.67;0.60;;;;;;;;;;5071697;28;20028;-58
2023/11/05 06:52:37;;;;;;;0.97;0.70;;;;;;;;;;5087281;28;20039;-57
2023/11/05 06:55:03;;;;;;;1.37;1.00;;;;;;;;;;5074203;28;20032;-57
2023/11/05 06:57:30;;;;;;;2.40;1.23;;;;;;;;;;5067692;28;20063;-58
2023/11/05 07:00:00;;;;;;;1.10;1.00;;;;;;;;;;5067427;28;20057;-57
2023/11/05 07:02:29;;;;;;;1.77;1.07;;;;;;;;;;5072203;28;20096;-57
2023/11/05 07:04:56;;;;;;;2.10;1.10;;;;;;;;;;5071173;28;20021;-57
2023/11/05 07:07:22;;;;;;;1.73;0.87;;;;;;;;;;5090932;28;20532;-57
2023/11/05 07:09:50;;;;;;;1.83;1.10;;;;;;;;;;5093183;28;20024;-57
2023/11/05 07:12:18;;;;;;;0.50;0.43;;;;;;;;;;5091333;28;20540;-57
2023/11/05 07:14:44;;;;;;;1.50;1.17;;;;;;;;;;5072621;28;20028;-57
2023/11/05 07:17:12;;;;;;;1.90;1.30;;;;;;;;;;5068758;28;20024;-57
2023/11/05 07:19:38;;;;;;;1.17;0.87;;;;;;;;;;5060033;28;20044;-57
2023/11/05 07:22:05;;;;;;;1.30;0.90;;;;;;;;;;5053485;28;20556;-58
2023/11/05 07:24:32;;;;;;;1.07;0.97;;;;;;;;;;5047397;28;20040;-57
2023/11/05 07:26:59;;;;;;;1.37;0.97;;;;;;;;;;5052723;28;20035;-58
2023/11/05 07:29:26;;;;;;;3.30;1.23;;;;;;;;;;5081831;28;20043;-58
2023/11/05 07:31:53;;;;;;;1.47;0.87;;;;;;;;;;5073140;28;20523;-58
2023/11/05 07:34:19;;;;;;;0.90;0.70;;;;;;;;;;5070953;28;20021;-57
2023/11/05 07:36:46;;;;;;;1.53;1.07;;;;;;;;;;5071137;28;20024;-58
2023/11/05 07:39:12;;;;;;;3.40;1.27;;;;;;;;;;5072479;28;20519;-58
2023/11/05 07:41:39;;;;;;;1.67;1.20;;;;;;;;;;5062148;28;20082;-57
2023/11/05 07:44:06;;;;;;;1.00;0.87;;;;;;;;;;5074139;28;20481;-57
2023/11/05 07:46:34;;;;;;;3.17;1.40;;;;;;;;;;5086253;28;20020;-58
2023/11/05 07:49:01;;;;;;;1.23;1.00;;;;;;;;;;5088309;28;20103;-58
2023/11/05 07:51:28;;;;;;;1.40;1.03;;;;;;;;;;5090967;28;20081;-57
2023/11/05 07:53:55;;;;;;;3.57;1.10;;;;;;;;;;5090884;28;20069;-57
2023/11/05 07:56:22;;;;;;;1.67;1.03;;;;;;;;;;5090789;28;20028;-58
2023/11/05 07:58:50;;;;;;;1.23;0.83;;;;;;;;;;5091010;28;20024;-57
2023/11/05 08:01:17;;;;;;;1.27;0.90;;;;;;;;;;5088634;28;20039;-57
2023/11/05 08:03:44;;;;;;;2.67;1.30;;;;;;;;;;5085820;28;20036;-59
2023/11/05 08:06:11;;;;;;;1.13;0.90;;;;;;;;;;5085490;28;20035;-57
2023/11/05 08:08:38;;;;;;;0.70;0.70;;;;;;;;;;5085182;28;20031;-57
2023/11/05 08:11:04;;;;;;;0.97;0.83;;;;;;;;;;5087421;28;20028;-58
2023/11/05 08:13:31;;;;;;;2.23;1.17;;;;;;;;;;5090510;28;20020;-58
2023/11/05 08:15:58;;;;;;;1.03;0.70;;;;;;;;;;5090814;28;20027;-57
2023/11/05 08:18:25;;;;;;;0.80;0.60;;;;;;;;;;5090532;28;20501;-58
2023/11/05 08:20:53;;;;;;;0.73;0.73;;;;;;;;;;5090993;28;20020;-57
2023/11/05 08:23:20;;;;;;;3.17;1.23;;;;;;;;;;5083170;28;20025;-58
2023/11/05 08:25:46;;;;;;;1.67;1.00;;;;;;;;;;5065223;28;20021;-58
2023/11/05 08:28:14;;;;;;;1.70;1.23;;;;;;;;;;5065269;28;20112;-57
2023/11/05 08:30:41;;;;;;;7.40;1.37;;;;;;;;;;5059017;28;20036;-58
2023/11/05 08:33:07;;;;;;;1.70;0.73;;;;;;;;;;5046117;28;20049;-58
2023/11/05 08:35:34;;;;;;;0.73;0.63;;;;;;;;;;5050430;28;20025;-58
2023/11/05 08:38:01;;;;;;;1.70;1.13;;;;;;;;;;5051705;28;20475;-57
2023/11/05 08:40:28;;;;;;;1.20;0.97;;;;;;;;;;5054517;28;20052;-57
2023/11/05 08:42:54;;;;;;;1.13;0.93;;;;;;;;;;5071947;28;20024;-57
2023/11/05 08:45:21;;;;;;;0.97;0.70;;;;;;;;;;5073610;28;20078;-57
2023/11/05 08:47:49;;;;;;;1.00;0.90;;;;;;;;;;5069280;28;20036;-57
2023/11/05 08:50:15;;;;;;;1.07;0.73;;;;;;;;;;5069432;28;20024;-57
2023/11/05 08:52:42;;;;;;;2.00;1.07;;;;;;;;;;5069435;28;20025;-58
2023/11/05 08:55:12;;;;;;;0.97;0.70;;;;;;;;;;5069217;28;20029;-58
2023/11/05 08:57:39;;;;;;;1.93;1.10;;;;;;;;;;5074066;28;20040;-57
2023/11/05 09:00:11;;;;;;;2.10;1.20;;;;;;;;;;5073750;28;20499;-58
2023/11/05 09:02:39;;;;;;;0.67;0.60;;;;;;;;;;5074283;28;20039;-58
2023/11/05 09:05:06;;;;;;;2.83;0.70;;;;;;;;;;5073863;28;20031;-57
2023/11/05 09:07:33;;;;;;;1.37;1.07;;;;;;;;;;5093353;28;20081;-58
2023/11/05 09:09:59;;;;;;;1.17;0.87;;;;;;;;;;5086651;28;20024;-58
2023/11/05 09:12:28;;;;;;;0.77;0.73;;;;;;;;;;5088761;28;20028;-58
2023/11/05 09:14:56;;;;;;;1.27;0.90;;;;;;;;;;5088863;28;20024;-58
2023/11/05 09:17:23;;;;;;;2.93;1.50;;;;;;;;;;5089721;28;20761;-57
2023/11/05 09:19:49;;;;;;;1.93;0.93;;;;;;;;;;5095202;28;20020;-57
2023/11/05 09:22:16;;;;;;;1.13;0.87;;;;;;;;;;5095348;28;20081;-57
2023/11/05 09:24:43;;;;;;;1.60;0.93;;;;;;;;;;5095311;28;20028;-57
2023/11/05 09:27:09;;;;;;;1.13;0.93;;;;;;;;;;5094899;28;20020;-57
2023/11/05 09:29:36;;;;;;;1.37;0.67;;;;;;;;;;5095309;28;20535;-57
2023/11/05 09:32:03;;;;;;;1.47;1.17;;;;;;;;;;5089619;28;20425;-58
2023/11/05 09:34:31;;;;;;;0.93;0.73;;;;;;;;;;5089743;28;20387;-57
2023/11/05 09:36:58;;;;;;;2.60;0.83;;;;;;;;;;5089601;28;20062;-58
2023/11/05 09:39:26;;;;;;;1.33;0.90;;;;;;;;;;5089595;28;20035;-57
2023/11/05 09:41:53;;;;;;;1.77;0.93;;;;;;;;;;5093990;28;20039;-58
2023/11/05 09:44:21;;;;;;;0.70;0.60;;;;;;;;;;5094988;28;20098;-57
2023/11/05 09:46:49;;;;;;;1.40;0.90;;;;;;;;;;5094849;28;20081;-57
2023/11/05 09:49:16;;;;;;;1.90;1.20;;;;;;;;;;5093757;28;20437;-57
2023/11/05 09:51:47;;;;;;;0.90;0.77;;;;;;;;;;5094876;28;20047;-57
2023/11/05 09:54:13;;;;;;;1.57;1.10;;;;;;;;;;5090139;28;20027;-57
2023/11/05 09:56:40;;;;;;;0.73;0.60;;;;;;;;;;5089418;28;20036;-57
2023/11/05 09:59:06;;;;;;;0.93;0.73;;;;;;;;;;5089218;28;20390;-57
2023/11/05 10:01:36;;;;;;;1.00;0.73;;;;;;;;;;5083008;28;20047;-58
2023/11/05 10:04:06;;;;;;;1.03;0.83;;;;;;;;;;5073018;28;20081;-57
2023/11/05 10:06:35;;;;;;;0.93;0.70;;;;;;;;;;5074104;28;20046;-58
2023/11/05 10:09:05;;;;;;;2.23;1.00;;;;;;;;;;5076807;28;20103;-57
2023/11/05 10:11:32;;;;;;;1.33;0.73;;;;;;;;;;5094341;28;20035;-57
2023/11/05 10:13:59;;;;;;;0.70;0.60;;;;;;;;;;5093952;28;20028;-57
2023/11/05 10:16:26;;;;;;;1.77;1.37;;;;;;;;;;5089914;28;20020;-57
2023/11/05 10:18:53;;;;;;;0.30;0.30;;;;;;;;;;5088361;28;20024;-58
2023/11/05 10:21:20;;;;;;;0.60;0.50;;;;;;;;;;5083478;28;20360;-57
2023/11/05 10:23:51;;;;;;;1.13;0.60;;;;;;;;;;5088865;28;20020;-57
2023/11/05 10:26:38;;;;;;;0.50;0.43;;;;;;;;;;5092355;28;20020;-57
2023/11/05 10:29:08;;;;;;;0.83;0.57;;;;;;;;;;5094076;28;20386;-58
2023/11/05 10:31:35;;;;;;;0.63;0.53;;;;;;;;;;5081351;28;20373;-57
2023/11/05 10:34:03;;;;;;;0.90;0.70;;;;;;;;;;5073669;28;20037;-57
2023/11/05 10:36:31;;;;;;;0.30;0.30;;;;;;;;;;5073547;28;20044;-58
2023/11/05 10:38:59;;;;;;;0.30;0.30;;;;;;;;;;5068609;28;20779;-57
2023/11/05 10:41:26;;;;;;;0.37;0.33;;;;;;;;;;5067716;28;20048;-57
2023/11/05 10:43:53;;;;;;;0.37;0.30;;;;;;;;;;5068061;28;20024;-57
2023/11/05 10:46:20;;;;;;;2.50;0.60;;;;;;;;;;5065036;28;20027;-57
2023/11/05 10:48:49;;;;;;;1.03;0.60;;;;;;;;;;5071786;28;20488;-57
2023/11/05 10:51:17;;;;;;;0.37;0.30;;;;;;;;;;5073424;28;20020;-57
2023/11/05 10:53:44;;;;;;;1.03;0.60;;;;;;;;;;5073184;28;20048;-57
2023/11/05 10:56:30;;;;;;;0.33;0.20;;;;;;;;;;5073173;28;20097;-57
2023/11/05 10:58:56;;;;;;;0.60;0.40;;;;;;;;;;5073238;28;20028;-57
2023/11/05 11:01:28;;;;;;;0.13;0.13;;;;;;;;;;5067067;28;20483;-57
2023/11/05 11:03:57;;;;;;;0.27;0.27;;;;;;;;;;5067506;28;20037;-57
2023/11/05 11:06:24;;;;;;;0.53;0.40;;;;;;;;;;5067890;28;20063;-57
2023/11/05 11:09:05;;;;;;;0.93;0.73;;;;;;;;;;5067538;28;20079;-57
2023/11/05 11:11:34;;;;;;;1.40;0.70;;;;;;;;;;5072022;28;20483;-57
2023/11/05 11:14:00;;;;;;;0.20;0.20;;;;;;;;;;5072765;28;20074;-57
2023/11/05 11:16:31;;;;;;;0.67;0.47;;;;;;;;;;5073056;28;20028;-57
2023/11/05 11:19:00;;;;;;;3.03;0.70;;;;;;;;;;5072653;28;20028;-57
2023/11/05 11:21:26;;;;;;;0.50;0.37;;;;;;;;;;5072614;28;20127;-57
2023/11/05 11:23:53;;;;;;;2.10;1.10;;;;;;;;;;5067311;28;20360;-58
2023/11/05 11:26:26;;;;;;;0.40;0.40;;;;;;;;;;5067356;28;20108;-57
2023/11/05 11:28:54;;;;;;;0.37;0.30;;;;;;;;;;5067437;28;20023;-57
2023/11/05 11:31:21;;;;;;;0.40;0.40;;;;;;;;;;5067272;28;20058;-57
2023/11/05 11:33:48;;;;;;;0.57;0.57;;;;;;;;;;5071799;28;20120;-57
2023/11/05 11:36:15;;;;;;;1.37;0.87;;;;;;;;;;5075602;28;20059;-57
2023/11/05 11:38:42;;;;;;;2.43;0.87;;;;;;;;;;5092719;28;20069;-57
2023/11/05 11:41:08;;;;;;;0.90;0.67;;;;;;;;;;5092453;28;20119;-57
2023/11/05 11:43:36;;;;;;;0.90;0.60;;;;;;;;;;5092000;28;20021;-57
2023/11/05 11:46:03;;;;;;;1.47;0.70;;;;;;;;;;5087776;28;20024;-57
2023/11/05 11:48:29;;;;;;;0.50;0.40;;;;;;;;;;5087285;28;20099;-57
2023/11/05 11:51:00;;;;;;;0.50;0.40;;;;;;;;;;5087196;28;20024;-57
2023/11/05 11:53:30;;;;;;;0.80;0.50;;;;;;;;;;5087008;28;20028;-57
2023/11/05 11:55:58;;;;;;;0.63;0.57;;;;;;;;;;5090752;28;20032;-57
2023/11/05 11:58:25;;;;;;;0.90;0.50;;;;;;;;;;5092069;28;20391;-58
2023/11/05 12:00:53;;;;;;;0.47;0.30;;;;;;;;;;5092219;28;20394;-57
2023/11/05 12:03:20;;;;;;;0.77;0.50;;;;;;;;;;5092392;28;20530;-57
2023/11/05 12:05:47;;;;;;;0.70;0.50;;;;;;;;;;5092043;28;20153;-57
2023/11/05 12:08:15;;;;;;;12.40;0.77;;;;;;;;;;5087747;28;20024;-57
2023/11/05 12:10:44;;;;;;;1.53;0.63;;;;;;;;;;5067090;28;20064;-57
2023/11/05 12:13:12;;;;;;;0.47;0.47;;;;;;;;;;5066405;28;20394;-58
2023/11/05 12:15:39;;;;;;;5.93;3.40;;;;;;;;;;5066266;28;20025;-57
2023/11/05 12:18:06;;;;;;;10.30;7.00;;;;;;;;;;5070429;28;20033;-57
2023/11/05 12:20:33;;;;;;;2.13;1.73;;;;;;;;;;5071984;28;20064;-57
2023/11/05 12:22:59;;;;;;;2.97;0.93;;;;;;;;;;5071967;28;20375;-57
2023/11/05 12:25:26;;;;;;;1.90;1.37;;;;;;;;;;5072145;28;20422;-57
2023/11/05 12:27:52;;;;;;;236.33;121.17;;;;;;;;;;5071680;28;20051;-57
2023/11/05 12:30:20;;;;;;;56.50;27.80;;;;;;;;;;5067669;28;20025;-57
2023/11/05 12:32:52;;;;;;;19.23;7.23;;;;;;;;;;5065940;28;20115;-58
2023/11/05 12:35:19;;;;;;;3.30;2.57;;;;;;;;;;5066400;28;20024;-58
2023/11/05 12:37:46;;;;;;;4.80;2.97;;;;;;;;;;5066377;28;20119;-57
2023/11/05 12:40:16;;;;;;;3.13;1.83;;;;;;;;;;5069520;28;20057;-57
2023/11/05 12:42:42;;;;;;;0.83;0.83;;;;;;;;;;5071581;28;20052;-57
2023/11/05 12:45:10;;;;;;;1.87;0.93;;;;;;;;;;5071624;28;20060;-57
2023/11/05 12:47:36;;;;;;;3.40;0.73;;;;;;;;;;5071173;28;20111;-57
2023/11/05 12:50:03;;;;;;;6.57;1.23;;;;;;;;;;5071685;28;20392;-57
2023/11/05 12:52:30;;;;;;;2.00;1.20;;;;;;;;;;5068074;28;20029;-57
2023/11/05 12:54:56;;;;;;;1.20;1.03;;;;;;;;;;5066328;28;20029;-57
2023/11/05 12:57:23;;;;;;;3.63;1.23;;;;;;;;;;5065974;28;20483;-57
2023/11/05 12:59:50;;;;;;;1.77;1.30;;;;;;;;;;5066168;28;20025;-57
2023/11/05 13:02:16;;;;;;;2.97;1.47;;;;;;;;;;5068843;28;20418;-57
2023/11/05 13:04:44;;;;;;;2.97;1.73;;;;;;;;;;5071188;28;20444;-57
2023/11/05 13:07:11;;;;;;;1.13;0.83;;;;;;;;;;5071490;28;20040;-57
2023/11/05 13:09:38;;;;;;;1.93;1.30;;;;;;;;;;5071447;28;20086;-57
2023/11/05 13:12:05;;;;;;;11.17;7.53;;;;;;;;;;5071382;28;20039;-57
2023/11/05 13:14:32;;;;;;;2.67;1.77;;;;;;;;;;5068351;28;20032;-58
2023/11/05 13:16:58;;;;;;;2.90;1.53;;;;;;;;;;5082081;28;20032;-57
2023/11/05 13:19:25;;;;;;;3.20;1.47;;;;;;;;;;5086279;28;20422;-57
2023/11/05 13:21:52;;;;;;;6.03;1.50;;;;;;;;;;5085723;28;20040;-57
2023/11/05 13:24:18;;;;;;;1.33;1.00;;;;;;;;;;5089943;28;20017;-57
2023/11/05 13:26:45;;;;;;;7.37;1.00;;;;;;;;;;5093044;28;20038;-57
2023/11/05 13:29:12;;;;;;;2.90;1.07;;;;;;;;;;5081579;28;20041;-57
2023/11/05 13:31:39;;;;;;;4.23;1.13;;;;;;;;;;5075549;28;20024;-57
2023/11/05 13:34:06;;;;;;;2.07;0.73;;;;;;;;;;5075238;28;20033;-57
2023/11/05 13:36:33;;;;;;;1.17;0.90;;;;;;;;;;5092195;28;20034;-57
2023/11/05 13:39:01;;;;;;;1.50;1.07;;;;;;;;;;5089183;28;20025;-57
2023/11/05 13:41:27;;;;;;;2.87;1.50;;;;;;;;;;5089235;28;20489;-57
2023/11/05 13:43:54;;;;;;;1.40;1.10;;;;;;;;;;5073574;28;20115;-57
2023/11/05 13:46:21;;;;;;;1.73;1.30;;;;;;;;;;5070728;28;20035;-57
2023/11/05 13:48:50;;;;;;;2.67;1.73;;;;;;;;;;5085665;28;20031;-57
2023/11/05 13:51:17;;;;;;;2.90;1.50;;;;;;;;;;5094749;28;20028;-58
2023/11/05 13:53:44;;;;;;;4.83;2.57;;;;;;;;;;5094669;28;20043;-57
2023/11/05 13:56:11;;;;;;;1.90;1.10;;;;;;;;;;5074805;28;20099;-57
2023/11/05 13:58:38;;;;;;;1.90;0.90;;;;;;;;;;5072712;28;20032;-57
2023/11/05 14:01:05;;;;;;;1.50;0.83;;;;;;;;;;5068888;28;20025;-58
2023/11/05 14:03:32;;;;;;;1.60;0.97;;;;;;;;;;5069280;28;20027;-57
2023/11/05 14:05:59;;;;;;;0.60;0.60;;;;;;;;;;5069001;28;20024;-57
2023/11/05 14:08:26;;;;;;;0.57;0.53;;;;;;;;;;5070942;28;20032;-57
2023/11/05 14:10:52;;;;;;;1.27;0.90;;;;;;;;;;5074029;28;20056;-57
2023/11/05 14:13:19;;;;;;;0.80;0.57;;;;;;;;;;5073514;28;20028;-57
2023/11/05 14:15:46;;;;;;;0.90;0.70;;;;;;;;;;5074100;28;20028;-57
2023/11/05 14:18:13;;;;;;;1.37;1.00;;;;;;;;;;5074020;28;20108;-57
2023/11/05 14:20:40;;;;;;;1.70;1.10;;;;;;;;;;5073120;28;20040;-57
2023/11/05 14:23:11;;;;;;;2.37;1.57;;;;;;;;;;5068580;28;20032;-57
2023/11/05 14:25:38;;;;;;;2.67;1.00;;;;;;;;;;5068305;28;20389;-58
2023/11/05 14:28:05;;;;;;;1.00;0.87;;;;;;;;;;5068296;28;20028;-57
2023/11/05 14:30:32;;;;;;;2.17;1.17;;;;;;;;;;5071134;28;20024;-57
2023/11/05 14:32:59;;;;;;;1.13;0.70;;;;;;;;;;5093826;28;20040;-58
2023/11/05 14:35:27;;;;;;;0.87;0.60;;;;;;;;;;5092864;28;20091;-57
2023/11/05 14:37:54;;;;;;;2.00;0.63;;;;;;;;;;5093922;28;20024;-57
2023/11/05 14:40:22;;;;;;;1.23;0.90;;;;;;;;;;5093641;28;20352;-57
2023/11/05 14:42:50;;;;;;;4.67;1.67;;;;;;;;;;5087359;28;20032;-57